Portada
METAR-TAF:

METAR-TAF

Aeropuertos :

Albertus Airport

Freeport, Illinois, Estados Unidos

latitud: 42-14-47N, longitud: 089-34-56W, altitud: 262 m

Observación

El informe se hizo hace 46 minutos, a las 19:35 UTC
Viento 12 kt del oeste-suroeste con ráfagas de 16 kt
Temperatura 31°C
Humedad 46%
Presión 1023 hPa
Nubes dispersas a una altura de 5000 ft
Cielo nuboso a una altura de 6500 ft

METAR: KFEP 191935Z AUTO 24012G16KT SCT050 BKN065 31/18 A3020 RMK AO2 T03130182

Hora: 15:21 (20:21 UTC)


TAF: falta

Observaciones y pronósticos meteorológicos de más de 4000 aeropuertos (mensajes METAR y TAF).

Los puntos amarillos y rojos representan las estaciones disponibles.

Ponga el ratón en el punto deseado para ver el nombre de la estación.

Haga clic para ver las observaciones y los pronósticos meteorológicos.

Para cambiar el mapa : haga clic en los botones verdes con una cruz de color negro para hacer un zoom, en el botón verde con un guión para alejar o en las flechas verdes para mapas adyacentes.


METAR-TAF: